THY2205 LGSR-LICC
Flight info
| Callsign | THY2205 |
|---|---|
| Flight time | 1h 40m |
| Altitude | 36000 |
| Route | NETIS UM601 TRL UA145 LORNO DCT PESAR DCT PIMOR |
| Aircraft | A21N/M-SDE3FGHIRWY/LB1 |
Departure
| Time | 2026-05-09 00:14 |
|---|---|
| Airport | Santorini International Airport (LGSR) |
Arrival
| Time | 2026-05-09 01:54 |
|---|---|
| Airport | Catania-Fontanarossa Airport (LICC) |
| Time | Latitude | Longitude | Altitude | Speed | Heading |
|---|---|---|---|---|---|
| 2026-05-08 23:59 | 36.40187 | 25.47458 | 114 ft | 0 kts | 250° |
| 2026-05-09 00:07 | 36.40190 | 25.47467 | 113 ft | 2 kts | 246° |
| 2026-05-09 00:07 | 36.40196 | 25.47484 | 113 ft | 2 kts | 246° |
| 2026-05-09 00:07 | 36.40201 | 25.47498 | 112 ft | 2 kts | 249° |
| 2026-05-09 00:08 | 36.40200 | 25.47513 | 112 ft | 2 kts | 311° |
| 2026-05-09 00:08 | 36.40194 | 25.47519 | 112 ft | 0 kts | 343° |
| 2026-05-09 00:08 | 36.40188 | 25.47521 | 111 ft | 0 kts | 338° |
| 2026-05-09 00:10 | 36.40189 | 25.47521 | 111 ft | 0 kts | 338° |
| 2026-05-09 00:10 | 36.40215 | 25.47507 | 112 ft | 8 kts | 338° |
| 2026-05-09 00:10 | 36.40251 | 25.47496 | 113 ft | 3 kts | 18° |
| 2026-05-09 00:11 | 36.40272 | 25.47535 | 112 ft | 7 kts | 67° |
| 2026-05-09 00:11 | 36.40313 | 25.47563 | 112 ft | 7 kts | 347° |
| 2026-05-09 00:11 | 36.40376 | 25.47534 | 114 ft | 11 kts | 339° |
| 2026-05-09 00:11 | 36.40469 | 25.47490 | 115 ft | 16 kts | 339° |
| 2026-05-09 00:12 | 36.40573 | 25.47442 | 118 ft | 14 kts | 339° |
| 2026-05-09 00:12 | 36.40664 | 25.47399 | 120 ft | 13 kts | 339° |
| 2026-05-09 00:12 | 36.40743 | 25.47362 | 122 ft | 11 kts | 339° |
| 2026-05-09 00:12 | 36.40799 | 25.47340 | 123 ft | 6 kts | 1° |
| 2026-05-09 00:13 | 36.40834 | 25.47373 | 123 ft | 7 kts | 65° |
| 2026-05-09 00:13 | 36.40854 | 25.47440 | 122 ft | 9 kts | 82° |
| 2026-05-09 00:13 | 36.40812 | 25.47496 | 120 ft | 10 kts | 157° |
| 2026-05-09 00:13 | 36.40789 | 25.47507 | 120 ft | 4 kts | 158° |
| 2026-05-09 00:14 | 36.40492 | 25.47645 | 113 ft | 84 kts | 159° |
| 2026-05-09 00:14 | 36.39723 | 25.48008 | 91 ft | 149 kts | 159° |
| 2026-05-09 00:14 | 36.38653 | 25.48527 | 383 ft | 171 kts | 158° |
| 2026-05-09 00:14 | 36.37539 | 25.49091 | 988 ft | 175 kts | 158° |
| 2026-05-09 00:15 | 36.36440 | 25.49688 | 1522 ft | 177 kts | 152° |
| 2026-05-09 00:15 | 36.35355 | 25.50520 | 1802 ft | 190 kts | 152° |
| 2026-05-09 00:15 | 36.34053 | 25.50831 | 2057 ft | 197 kts | 195° |
| 2026-05-09 00:15 | 36.33026 | 25.49863 | 2589 ft | 184 kts | 247° |
| 2026-05-09 00:16 | 36.32925 | 25.48419 | 3307 ft | 167 kts | 284° |
| 2026-05-09 00:16 | 36.33463 | 25.47168 | 3738 ft | 174 kts | 312° |
| 2026-05-09 00:16 | 36.34456 | 25.46170 | 4042 ft | 189 kts | 319° |
| 2026-05-09 00:16 | 36.35503 | 25.45102 | 4344 ft | 204 kts | 317° |
| 2026-05-09 00:17 | 36.36634 | 25.43898 | 4607 ft | 224 kts | 316° |
| 2026-05-09 00:17 | 36.37844 | 25.42589 | 5022 ft | 237 kts | 316° |
| 2026-05-09 00:17 | 36.39084 | 25.41238 | 5724 ft | 239 kts | 316° |
| 2026-05-09 00:17 | 36.40320 | 25.39882 | 6417 ft | 241 kts | 315° |
| 2026-05-09 00:18 | 36.41570 | 25.38507 | 7091 ft | 243 kts | 315° |
| 2026-05-09 00:18 | 36.42837 | 25.37106 | 7763 ft | 245 kts | 315° |
| 2026-05-09 00:18 | 36.44115 | 25.35693 | 8415 ft | 248 kts | 314° |
| 2026-05-09 00:18 | 36.45392 | 25.34279 | 9064 ft | 250 kts | 314° |
| 2026-05-09 00:19 | 36.46690 | 25.32844 | 9694 ft | 252 kts | 314° |
| 2026-05-09 00:19 | 36.47999 | 25.31394 | 10323 ft | 253 kts | 314° |
| 2026-05-09 00:19 | 36.49301 | 25.29951 | 10961 ft | 254 kts | 314° |
| 2026-05-09 00:19 | 36.50619 | 25.28487 | 11591 ft | 254 kts | 313° |
| 2026-05-09 00:20 | 36.51786 | 25.26880 | 12162 ft | 253 kts | 305° |
| 2026-05-09 00:20 | 36.52844 | 25.25153 | 12755 ft | 253 kts | 303° |
| 2026-05-09 00:20 | 36.53897 | 25.23399 | 13346 ft | 254 kts | 303° |
| 2026-05-09 00:20 | 36.54946 | 25.21660 | 13906 ft | 255 kts | 303° |
| 2026-05-09 00:21 | 36.56010 | 25.19904 | 14424 ft | 257 kts | 303° |
| 2026-05-09 00:21 | 36.57090 | 25.18128 | 14960 ft | 258 kts | 304° |
| 2026-05-09 00:21 | 36.58174 | 25.16352 | 15496 ft | 259 kts | 304° |
| 2026-05-09 00:21 | 36.59262 | 25.14569 | 16005 ft | 260 kts | 304° |
| 2026-05-09 00:22 | 36.60365 | 25.12766 | 16496 ft | 262 kts | 304° |
| 2026-05-09 00:22 | 36.61461 | 25.10976 | 16982 ft | 263 kts | 305° |
| 2026-05-09 00:22 | 36.62568 | 25.09165 | 17447 ft | 264 kts | 305° |
| 2026-05-09 00:22 | 36.63680 | 25.07345 | 17914 ft | 266 kts | 305° |
| 2026-05-09 00:23 | 36.64805 | 25.05503 | 18402 ft | 266 kts | 305° |
| 2026-05-09 00:23 | 36.65909 | 25.03695 | 18843 ft | 268 kts | 305° |
| 2026-05-09 00:23 | 36.67048 | 25.01828 | 19278 ft | 270 kts | 305° |
| 2026-05-09 00:23 | 36.68176 | 24.99980 | 19697 ft | 272 kts | 305° |
| 2026-05-09 00:24 | 36.69291 | 24.98034 | 19972 ft | 278 kts | 299° |
| 2026-05-09 00:24 | 36.70112 | 24.95828 | 20157 ft | 287 kts | 289° |
| 2026-05-09 00:24 | 36.70580 | 24.93382 | 20342 ft | 297 kts | 280° |
| 2026-05-09 00:24 | 36.70864 | 24.90787 | 20530 ft | 307 kts | 279° |
| 2026-05-09 00:25 | 36.71141 | 24.88099 | 20713 ft | 317 kts | 279° |
| 2026-05-09 00:25 | 36.71420 | 24.85362 | 20888 ft | 326 kts | 279° |
| 2026-05-09 00:25 | 36.71706 | 24.82550 | 21054 ft | 335 kts | 279° |
| 2026-05-09 00:25 | 36.72004 | 24.79613 | 21220 ft | 343 kts | 279° |
| 2026-05-09 00:26 | 36.72304 | 24.76648 | 21379 ft | 351 kts | 278° |
| 2026-05-09 00:26 | 36.72612 | 24.73587 | 21535 ft | 360 kts | 279° |
| 2026-05-09 00:26 | 36.72922 | 24.70492 | 21681 ft | 367 kts | 279° |
| 2026-05-09 00:26 | 36.73241 | 24.67308 | 21822 ft | 374 kts | 279° |
| 2026-05-09 00:27 | 36.73567 | 24.64046 | 21957 ft | 382 kts | 278° |
| 2026-05-09 00:27 | 36.73891 | 24.60785 | 22087 ft | 388 kts | 279° |
| 2026-05-09 00:27 | 36.74226 | 24.57431 | 22213 ft | 394 kts | 279° |
| 2026-05-09 00:27 | 36.74694 | 24.54046 | 22342 ft | 399 kts | 283° |
| 2026-05-09 00:28 | 36.75366 | 24.50686 | 22466 ft | 404 kts | 287° |
| 2026-05-09 00:28 | 36.76251 | 24.47328 | 22581 ft | 409 kts | 291° |
| 2026-05-09 00:28 | 36.77271 | 24.43988 | 22692 ft | 414 kts | 291° |
| 2026-05-09 00:28 | 36.78309 | 24.40644 | 22800 ft | 418 kts | 291° |
| 2026-05-09 00:29 | 36.79364 | 24.37260 | 22904 ft | 423 kts | 291° |
| 2026-05-09 00:29 | 36.80434 | 24.33819 | 23078 ft | 425 kts | 291° |
| 2026-05-09 00:29 | 36.81496 | 24.30405 | 23383 ft | 424 kts | 291° |
| 2026-05-09 00:29 | 36.82561 | 24.26977 | 23765 ft | 421 kts | 291° |
| 2026-05-09 00:30 | 36.83606 | 24.23599 | 24121 ft | 419 kts | 291° |
| 2026-05-09 00:30 | 36.84653 | 24.20220 | 24459 ft | 418 kts | 291° |
| 2026-05-09 00:30 | 36.85699 | 24.16835 | 24780 ft | 416 kts | 291° |
| 2026-05-09 00:30 | 36.86742 | 24.13451 | 25099 ft | 415 kts | 291° |
| 2026-05-09 00:31 | 36.87769 | 24.10118 | 25409 ft | 414 kts | 291° |
| 2026-05-09 00:31 | 36.88803 | 24.06754 | 25720 ft | 413 kts | 291° |
| 2026-05-09 00:31 | 36.89831 | 24.03410 | 26032 ft | 412 kts | 291° |
| 2026-05-09 00:31 | 36.90845 | 24.00111 | 26325 ft | 411 kts | 291° |
| 2026-05-09 00:32 | 36.91868 | 23.96793 | 26620 ft | 410 kts | 291° |
| 2026-05-09 00:32 | 36.92882 | 23.93500 | 26921 ft | 409 kts | 291° |
| 2026-05-09 00:32 | 36.93911 | 23.90151 | 27201 ft | 408 kts | 291° |
| 2026-05-09 00:32 | 36.94920 | 23.86865 | 27477 ft | 408 kts | 291° |
| 2026-05-09 00:33 | 36.95935 | 23.83545 | 27749 ft | 407 kts | 291° |
| 2026-05-09 00:33 | 36.96934 | 23.80280 | 28025 ft | 407 kts | 291° |
| 2026-05-09 00:33 | 36.97935 | 23.76999 | 28315 ft | 406 kts | 290° |
| 2026-05-09 00:33 | 36.98941 | 23.73697 | 28619 ft | 404 kts | 290° |
| 2026-05-09 00:34 | 36.99934 | 23.70433 | 28937 ft | 403 kts | 290° |
| 2026-05-09 00:34 | 37.00922 | 23.67188 | 29239 ft | 402 kts | 290° |
| 2026-05-09 00:34 | 37.01910 | 23.63931 | 29519 ft | 401 kts | 290° |
| 2026-05-09 00:34 | 37.02896 | 23.60681 | 29814 ft | 400 kts | 290° |
| 2026-05-09 00:35 | 37.03876 | 23.57441 | 30120 ft | 398 kts | 290° |
| 2026-05-09 00:35 | 37.04859 | 23.54195 | 30424 ft | 397 kts | 290° |
| 2026-05-09 00:35 | 37.05825 | 23.50990 | 30672 ft | 397 kts | 290° |
| 2026-05-09 00:35 | 37.06803 | 23.47755 | 30927 ft | 397 kts | 290° |
| 2026-05-09 00:36 | 37.07773 | 23.44535 | 31221 ft | 395 kts | 290° |
| 2026-05-09 00:36 | 37.08731 | 23.41350 | 31498 ft | 394 kts | 290° |
| 2026-05-09 00:36 | 37.09695 | 23.38144 | 31752 ft | 394 kts | 290° |
| 2026-05-09 00:36 | 37.10657 | 23.34941 | 32024 ft | 393 kts | 290° |
| 2026-05-09 00:37 | 37.11612 | 23.31754 | 32325 ft | 392 kts | 290° |
| 2026-05-09 00:37 | 37.12575 | 23.28551 | 32641 ft | 390 kts | 290° |
| 2026-05-09 00:37 | 37.13521 | 23.25392 | 32937 ft | 389 kts | 290° |
| 2026-05-09 00:37 | 37.14476 | 23.22208 | 33211 ft | 388 kts | 290° |
| 2026-05-09 00:38 | 37.15419 | 23.19057 | 33479 ft | 387 kts | 290° |
| 2026-05-09 00:38 | 37.16356 | 23.15912 | 33756 ft | 386 kts | 290° |
| 2026-05-09 00:38 | 37.17294 | 23.12773 | 34047 ft | 385 kts | 290° |
| 2026-05-09 00:38 | 37.18217 | 23.09672 | 34322 ft | 384 kts | 290° |
| 2026-05-09 00:39 | 37.19144 | 23.06544 | 34542 ft | 384 kts | 290° |
| 2026-05-09 00:39 | 37.20073 | 23.03412 | 34771 ft | 384 kts | 290° |
| 2026-05-09 00:39 | 37.21006 | 23.00264 | 35005 ft | 384 kts | 290° |
| 2026-05-09 00:39 | 37.21931 | 22.97142 | 35247 ft | 383 kts | 290° |
| 2026-05-09 00:40 | 37.22854 | 22.94024 | 35448 ft | 383 kts | 290° |
| 2026-05-09 00:40 | 37.23782 | 22.90876 | 35625 ft | 384 kts | 290° |
| 2026-05-09 00:40 | 37.24708 | 22.87740 | 35769 ft | 384 kts | 290° |
| 2026-05-09 00:41 | 37.26544 | 22.81505 | 36090 ft | 385 kts | 290° |
| 2026-05-09 00:41 | 37.27479 | 22.78330 | 36121 ft | 385 kts | 290° |
| 2026-05-09 00:41 | 37.29321 | 22.72064 | 36134 ft | 386 kts | 290° |
| 2026-05-09 00:42 | 37.31170 | 22.65743 | 36125 ft | 385 kts | 290° |
| 2026-05-09 00:42 | 37.33018 | 22.59413 | 36116 ft | 385 kts | 290° |
| 2026-05-09 00:43 | 37.34849 | 22.53131 | 36114 ft | 385 kts | 290° |
| 2026-05-09 00:43 | 37.36683 | 22.46822 | 36105 ft | 385 kts | 290° |
| 2026-05-09 00:44 | 37.38394 | 22.40462 | 36118 ft | 386 kts | 287° |
| 2026-05-09 00:44 | 37.39632 | 22.33902 | 36111 ft | 387 kts | 282° |
| 2026-05-09 00:45 | 37.40357 | 22.27177 | 36116 ft | 388 kts | 277° |
| 2026-05-09 00:45 | 37.40603 | 22.20413 | 36111 ft | 390 kts | 275° |
| 2026-05-09 00:46 | 37.40713 | 22.13614 | 36106 ft | 391 kts | 274° |
| 2026-05-09 00:46 | 37.40782 | 22.06800 | 36101 ft | 390 kts | 273° |
| 2026-05-09 00:47 | 37.40844 | 22.00030 | 36094 ft | 390 kts | 274° |
| 2026-05-09 00:47 | 37.40902 | 21.93231 | 36093 ft | 389 kts | 274° |
| 2026-05-09 00:48 | 37.40956 | 21.86440 | 36095 ft | 389 kts | 274° |
| 2026-05-09 00:48 | 37.41008 | 21.79665 | 36105 ft | 389 kts | 274° |
| 2026-05-09 00:49 | 37.41056 | 21.72865 | 36108 ft | 388 kts | 274° |
| 2026-05-09 00:49 | 37.41101 | 21.66133 | 36100 ft | 388 kts | 274° |
| 2026-05-09 00:50 | 37.41143 | 21.59350 | 36085 ft | 388 kts | 274° |
| 2026-05-09 00:50 | 37.41184 | 21.52595 | 36067 ft | 387 kts | 274° |
| 2026-05-09 00:51 | 37.41221 | 21.45882 | 36069 ft | 387 kts | 274° |
| 2026-05-09 00:51 | 37.41254 | 21.39130 | 36053 ft | 387 kts | 274° |
| 2026-05-09 00:52 | 37.41282 | 21.32359 | 36051 ft | 388 kts | 273° |
| 2026-05-09 00:52 | 37.41307 | 21.25645 | 36047 ft | 386 kts | 273° |
| 2026-05-09 00:53 | 37.41327 | 21.18918 | 36045 ft | 386 kts | 273° |
| 2026-05-09 00:53 | 37.41345 | 21.12194 | 36044 ft | 387 kts | 273° |
| 2026-05-09 00:54 | 37.41356 | 21.05439 | 36034 ft | 387 kts | 274° |
| 2026-05-09 00:54 | 37.41367 | 20.98692 | 36035 ft | 386 kts | 273° |
| 2026-05-09 00:55 | 37.41372 | 20.91976 | 36035 ft | 386 kts | 274° |
| 2026-05-09 00:55 | 37.41380 | 20.85251 | 36036 ft | 385 kts | 274° |
| 2026-05-09 00:56 | 37.41382 | 20.78537 | 36034 ft | 385 kts | 273° |
| 2026-05-09 00:56 | 37.41379 | 20.71848 | 36034 ft | 385 kts | 273° |
| 2026-05-09 00:57 | 37.41372 | 20.65163 | 36032 ft | 384 kts | 273° |
| 2026-05-09 00:57 | 37.41362 | 20.58464 | 36031 ft | 383 kts | 273° |
| 2026-05-09 00:58 | 37.41348 | 20.51810 | 36033 ft | 383 kts | 273° |
| 2026-05-09 00:58 | 37.41330 | 20.45132 | 36028 ft | 383 kts | 274° |
| 2026-05-09 00:59 | 37.41307 | 20.38427 | 36023 ft | 382 kts | 274° |
| 2026-05-09 00:59 | 37.41282 | 20.31777 | 36029 ft | 381 kts | 272° |
| 2026-05-09 01:00 | 37.41252 | 20.25176 | 36025 ft | 381 kts | 273° |
| 2026-05-09 01:00 | 37.41221 | 20.18500 | 36025 ft | 381 kts | 272° |
| 2026-05-09 01:01 | 37.41184 | 20.11853 | 36018 ft | 381 kts | 272° |
| 2026-05-09 01:01 | 37.41143 | 20.05214 | 36021 ft | 381 kts | 273° |
| 2026-05-09 01:02 | 37.41099 | 19.98608 | 36017 ft | 380 kts | 273° |
| 2026-05-09 01:02 | 37.41051 | 19.91993 | 36015 ft | 380 kts | 273° |
| 2026-05-09 01:03 | 37.41002 | 19.85328 | 36019 ft | 380 kts | 272° |
| 2026-05-09 01:03 | 37.40945 | 19.78725 | 36016 ft | 379 kts | 273° |
| 2026-05-09 01:04 | 37.40887 | 19.72127 | 36017 ft | 380 kts | 273° |
| 2026-05-09 01:04 | 37.40824 | 19.65480 | 36016 ft | 380 kts | 273° |
| 2026-05-09 01:05 | 37.40760 | 19.58880 | 36017 ft | 379 kts | 272° |
| 2026-05-09 01:06 | 37.40653 | 19.48955 | 36016 ft | 379 kts | 273° |
| 2026-05-09 01:06 | 37.40577 | 19.42353 | 36016 ft | 379 kts | 272° |
| 2026-05-09 01:07 | 37.40498 | 19.35724 | 36016 ft | 380 kts | 273° |
| 2026-05-09 01:07 | 37.40417 | 19.29155 | 36017 ft | 379 kts | 272° |
| 2026-05-09 01:08 | 37.40331 | 19.22550 | 36017 ft | 378 kts | 272° |
| 2026-05-09 01:08 | 37.40239 | 19.15926 | 36016 ft | 378 kts | 272° |
| 2026-05-09 01:09 | 37.40146 | 19.09359 | 36014 ft | 378 kts | 272° |
| 2026-05-09 01:09 | 37.40053 | 19.02805 | 36007 ft | 377 kts | 273° |
| 2026-05-09 01:10 | 37.40261 | 18.96222 | 36004 ft | 376 kts | 277° |
| 2026-05-09 01:10 | 37.40658 | 18.89690 | 36004 ft | 376 kts | 277° |
| 2026-05-09 01:11 | 37.41052 | 18.83157 | 36004 ft | 375 kts | 277° |
| 2026-05-09 01:11 | 37.41444 | 18.76658 | 36001 ft | 376 kts | 277° |
| 2026-05-09 01:12 | 37.41837 | 18.70093 | 35998 ft | 377 kts | 277° |
| 2026-05-09 01:12 | 37.42226 | 18.63545 | 35998 ft | 375 kts | 277° |
| 2026-05-09 01:13 | 37.42608 | 18.57055 | 35999 ft | 376 kts | 276° |
| 2026-05-09 01:13 | 37.42989 | 18.50510 | 35999 ft | 376 kts | 276° |
| 2026-05-09 01:14 | 37.43368 | 18.43943 | 36000 ft | 376 kts | 277° |
| 2026-05-09 01:14 | 37.43741 | 18.37435 | 35997 ft | 376 kts | 276° |
| 2026-05-09 01:15 | 37.44112 | 18.30857 | 35997 ft | 376 kts | 276° |
| 2026-05-09 01:15 | 37.44478 | 18.24328 | 35996 ft | 376 kts | 276° |
| 2026-05-09 01:16 | 37.44841 | 18.17820 | 35996 ft | 376 kts | 276° |
| 2026-05-09 01:16 | 37.45200 | 18.11284 | 35995 ft | 375 kts | 276° |
| 2026-05-09 01:17 | 37.45730 | 18.01472 | 35995 ft | 376 kts | 276° |
| 2026-05-09 01:17 | 37.46080 | 17.94937 | 35995 ft | 376 kts | 276° |
| 2026-05-09 01:18 | 37.46424 | 17.88381 | 35996 ft | 376 kts | 276° |
| 2026-05-09 01:18 | 37.46769 | 17.81847 | 35997 ft | 376 kts | 275° |
| 2026-05-09 01:19 | 37.47107 | 17.75260 | 35997 ft | 376 kts | 276° |
| 2026-05-09 01:19 | 37.47445 | 17.68730 | 35997 ft | 376 kts | 276° |
| 2026-05-09 01:20 | 37.47781 | 17.62169 | 35998 ft | 376 kts | 275° |
| 2026-05-09 01:20 | 37.48107 | 17.55672 | 36000 ft | 375 kts | 276° |
| 2026-05-09 01:21 | 37.48432 | 17.49141 | 36000 ft | 375 kts | 276° |
| 2026-05-09 01:21 | 37.48754 | 17.42596 | 36000 ft | 374 kts | 276° |
| 2026-05-09 01:22 | 37.49069 | 17.36097 | 36002 ft | 374 kts | 276° |
| 2026-05-09 01:22 | 37.49381 | 17.29581 | 36003 ft | 375 kts | 275° |
| 2026-05-09 01:23 | 37.49692 | 17.23042 | 35999 ft | 375 kts | 275° |
| 2026-05-09 01:23 | 37.49994 | 17.16507 | 35996 ft | 374 kts | 275° |
| 2026-05-09 01:24 | 37.50377 | 17.10021 | 35996 ft | 375 kts | 276° |
| 2026-05-09 01:24 | 37.50786 | 17.03502 | 35995 ft | 375 kts | 276° |
| 2026-05-09 01:25 | 37.51186 | 16.96978 | 35995 ft | 374 kts | 276° |
| 2026-05-09 01:25 | 37.51583 | 16.90442 | 35996 ft | 374 kts | 276° |
| 2026-05-09 01:26 | 37.51977 | 16.83905 | 36000 ft | 376 kts | 275° |
| 2026-05-09 01:26 | 37.52367 | 16.77319 | 35998 ft | 381 kts | 276° |
| 2026-05-09 01:27 | 37.52760 | 16.70681 | 36001 ft | 382 kts | 275° |
| 2026-05-09 01:27 | 37.53145 | 16.64055 | 36000 ft | 382 kts | 275° |
| 2026-05-09 01:28 | 37.53532 | 16.57399 | 36002 ft | 381 kts | 276° |
| 2026-05-09 01:28 | 37.53922 | 16.50736 | 36006 ft | 382 kts | 276° |
| 2026-05-09 01:29 | 37.54303 | 16.44089 | 35998 ft | 382 kts | 276° |
| 2026-05-09 01:29 | 37.54491 | 16.40759 | 35701 ft | 382 kts | 276° |
| 2026-05-09 01:29 | 37.54675 | 16.37479 | 35404 ft | 379 kts | 276° |
| 2026-05-09 01:30 | 37.54859 | 16.34160 | 35048 ft | 377 kts | 275° |
| 2026-05-09 01:30 | 37.55043 | 16.30878 | 34603 ft | 376 kts | 275° |
| 2026-05-09 01:30 | 37.55224 | 16.27590 | 34053 ft | 377 kts | 275° |
| 2026-05-09 01:30 | 37.55400 | 16.24335 | 33466 ft | 378 kts | 275° |
| 2026-05-09 01:31 | 37.55581 | 16.21029 | 32845 ft | 378 kts | 275° |
| 2026-05-09 01:31 | 37.55758 | 16.17767 | 32187 ft | 378 kts | 275° |
| 2026-05-09 01:31 | 37.55936 | 16.14458 | 31468 ft | 379 kts | 275° |
| 2026-05-09 01:31 | 37.56114 | 16.11132 | 30750 ft | 380 kts | 275° |
| 2026-05-09 01:32 | 37.56290 | 16.07834 | 30020 ft | 381 kts | 275° |
| 2026-05-09 01:32 | 37.56465 | 16.04542 | 29311 ft | 382 kts | 276° |
| 2026-05-09 01:32 | 37.56644 | 16.01185 | 28575 ft | 384 kts | 275° |
| 2026-05-09 01:32 | 37.56820 | 15.97875 | 27850 ft | 385 kts | 275° |
| 2026-05-09 01:33 | 37.56995 | 15.94488 | 27105 ft | 386 kts | 275° |
| 2026-05-09 01:33 | 37.57167 | 15.91160 | 26361 ft | 387 kts | 274° |
| 2026-05-09 01:33 | 37.57342 | 15.87780 | 25584 ft | 389 kts | 274° |
| 2026-05-09 01:33 | 37.57441 | 15.84372 | 24716 ft | 392 kts | 272° |
| 2026-05-09 01:34 | 37.57480 | 15.80975 | 23853 ft | 395 kts | 271° |
| 2026-05-09 01:34 | 37.57517 | 15.77481 | 22929 ft | 398 kts | 271° |
| 2026-05-09 01:34 | 37.57550 | 15.74035 | 22154 ft | 397 kts | 271° |
| 2026-05-09 01:34 | 37.57581 | 15.70584 | 21551 ft | 392 kts | 271° |
| 2026-05-09 01:35 | 37.57608 | 15.67198 | 20951 ft | 388 kts | 271° |
| 2026-05-09 01:35 | 37.57635 | 15.63848 | 20350 ft | 384 kts | 271° |
| 2026-05-09 01:35 | 37.57663 | 15.60499 | 19751 ft | 380 kts | 271° |
| 2026-05-09 01:35 | 37.57689 | 15.57191 | 19166 ft | 377 kts | 271° |
| 2026-05-09 01:36 | 37.57711 | 15.53911 | 18572 ft | 374 kts | 271° |
| 2026-05-09 01:36 | 37.57735 | 15.50670 | 18112 ft | 367 kts | 271° |
| 2026-05-09 01:36 | 37.57757 | 15.47544 | 17913 ft | 352 kts | 271° |
| 2026-05-09 01:36 | 37.57775 | 15.44516 | 17719 ft | 338 kts | 271° |
| 2026-05-09 01:37 | 37.57793 | 15.41616 | 17588 ft | 324 kts | 271° |
| 2026-05-09 01:37 | 37.57778 | 15.38847 | 17435 ft | 312 kts | 270° |
| 2026-05-09 01:37 | 37.57740 | 15.36165 | 17166 ft | 303 kts | 270° |
| 2026-05-09 01:37 | 37.57700 | 15.33547 | 16902 ft | 295 kts | 269° |
| 2026-05-09 01:38 | 37.57664 | 15.30988 | 16731 ft | 284 kts | 270° |
| 2026-05-09 01:38 | 37.57630 | 15.28541 | 16569 ft | 276 kts | 270° |
| 2026-05-09 01:38 | 37.57597 | 15.26179 | 16344 ft | 266 kts | 270° |
| 2026-05-09 01:38 | 37.57564 | 15.23887 | 16228 ft | 255 kts | 270° |
| 2026-05-09 01:39 | 37.57533 | 15.21709 | 16089 ft | 246 kts | 270° |
| 2026-05-09 01:39 | 37.57503 | 15.19576 | 16009 ft | 244 kts | 270° |
| 2026-05-09 01:39 | 37.57473 | 15.17444 | 15865 ft | 244 kts | 270° |
| 2026-05-09 01:39 | 37.57433 | 15.15291 | 15734 ft | 244 kts | 269° |
| 2026-05-09 01:40 | 37.57293 | 15.13175 | 15462 ft | 247 kts | 266° |
| 2026-05-09 01:40 | 37.57114 | 15.11025 | 15082 ft | 248 kts | 266° |
| 2026-05-09 01:40 | 37.56933 | 15.08855 | 14713 ft | 248 kts | 266° |
| 2026-05-09 01:40 | 37.56754 | 15.06704 | 14357 ft | 248 kts | 266° |
| 2026-05-09 01:41 | 37.56573 | 15.04538 | 13987 ft | 248 kts | 266° |
| 2026-05-09 01:41 | 37.56393 | 15.02410 | 13630 ft | 248 kts | 266° |
| 2026-05-09 01:41 | 37.56210 | 15.00233 | 13279 ft | 248 kts | 266° |
| 2026-05-09 01:41 | 37.56029 | 14.98093 | 12942 ft | 246 kts | 267° |
| 2026-05-09 01:42 | 37.55845 | 14.95943 | 12600 ft | 245 kts | 267° |
| 2026-05-09 01:42 | 37.55665 | 14.93832 | 12274 ft | 244 kts | 267° |
| 2026-05-09 01:42 | 37.55484 | 14.91717 | 11944 ft | 243 kts | 267° |
| 2026-05-09 01:42 | 37.55306 | 14.89619 | 11618 ft | 241 kts | 267° |
| 2026-05-09 01:43 | 37.55127 | 14.87517 | 11293 ft | 240 kts | 267° |
| 2026-05-09 01:43 | 37.54948 | 14.85437 | 10931 ft | 240 kts | 267° |
| 2026-05-09 01:43 | 37.54769 | 14.83338 | 10329 ft | 247 kts | 267° |
| 2026-05-09 01:43 | 37.54584 | 14.81194 | 9722 ft | 250 kts | 267° |
| 2026-05-09 01:44 | 37.54398 | 14.79013 | 9117 ft | 251 kts | 267° |
| 2026-05-09 01:44 | 37.54209 | 14.76855 | 8894 ft | 241 kts | 267° |
| 2026-05-09 01:44 | 37.54031 | 14.74825 | 8760 ft | 230 kts | 267° |
| 2026-05-09 01:44 | 37.53859 | 14.72841 | 8629 ft | 227 kts | 267° |
| 2026-05-09 01:45 | 37.53687 | 14.70855 | 8462 ft | 227 kts | 267° |
| 2026-05-09 01:45 | 37.53514 | 14.68890 | 8301 ft | 226 kts | 267° |
| 2026-05-09 01:45 | 37.53342 | 14.66903 | 8126 ft | 226 kts | 267° |
| 2026-05-09 01:45 | 37.53170 | 14.64942 | 7906 ft | 226 kts | 267° |
| 2026-05-09 01:46 | 37.53000 | 14.63003 | 7874 ft | 224 kts | 267° |
| 2026-05-09 01:46 | 37.52828 | 14.61042 | 7901 ft | 225 kts | 267° |
| 2026-05-09 01:46 | 37.52506 | 14.59144 | 7812 ft | 229 kts | 248° |
| 2026-05-09 01:46 | 37.51345 | 14.57600 | 7231 ft | 257 kts | 214° |
| 2026-05-09 01:47 | 37.49583 | 14.57026 | 6614 ft | 274 kts | 184° |
| 2026-05-09 01:47 | 37.47726 | 14.57642 | 6002 ft | 288 kts | 152° |
| 2026-05-09 01:47 | 37.46328 | 14.59413 | 5444 ft | 291 kts | 122° |
| 2026-05-09 01:47 | 37.45322 | 14.61590 | 5091 ft | 283 kts | 121° |
| 2026-05-09 01:48 | 37.44346 | 14.63677 | 5004 ft | 267 kts | 122° |
| 2026-05-09 01:48 | 37.43460 | 14.65629 | 4986 ft | 251 kts | 113° |
| 2026-05-09 01:48 | 37.43165 | 14.67731 | 4989 ft | 244 kts | 84° |
| 2026-05-09 01:48 | 37.43383 | 14.69834 | 5007 ft | 243 kts | 77° |
| 2026-05-09 01:49 | 37.43687 | 14.71938 | 4998 ft | 243 kts | 78° |
| 2026-05-09 01:49 | 37.43946 | 14.74010 | 4840 ft | 242 kts | 80° |
| 2026-05-09 01:49 | 37.44161 | 14.76105 | 4517 ft | 241 kts | 81° |
| 2026-05-09 01:49 | 37.44346 | 14.78213 | 4214 ft | 240 kts | 82° |
| 2026-05-09 01:50 | 37.44513 | 14.80281 | 3901 ft | 239 kts | 82° |
| 2026-05-09 01:50 | 37.44676 | 14.82347 | 3589 ft | 237 kts | 82° |
| 2026-05-09 01:50 | 37.44837 | 14.84389 | 3382 ft | 228 kts | 82° |
| 2026-05-09 01:50 | 37.44993 | 14.86345 | 3050 ft | 220 kts | 82° |
| 2026-05-09 01:51 | 37.45142 | 14.88180 | 2723 ft | 206 kts | 82° |
| 2026-05-09 01:51 | 37.45285 | 14.89931 | 2426 ft | 194 kts | 82° |
| 2026-05-09 01:51 | 37.45419 | 14.91548 | 2190 ft | 180 kts | 82° |
| 2026-05-09 01:51 | 37.45542 | 14.93051 | 1940 ft | 168 kts | 82° |
| 2026-05-09 01:52 | 37.45658 | 14.94449 | 1714 ft | 153 kts | 82° |
| 2026-05-09 01:52 | 37.45766 | 14.95748 | 1513 ft | 146 kts | 82° |
| 2026-05-09 01:52 | 37.45873 | 14.97017 | 1340 ft | 146 kts | 82° |
| 2026-05-09 01:52 | 37.45977 | 14.98270 | 1161 ft | 145 kts | 83° |
| 2026-05-09 01:53 | 37.46082 | 14.99535 | 976 ft | 145 kts | 83° |
| 2026-05-09 01:53 | 37.46187 | 15.00794 | 783 ft | 144 kts | 83° |
| 2026-05-09 01:53 | 37.46293 | 15.02061 | 584 ft | 144 kts | 83° |
| 2026-05-09 01:53 | 37.46397 | 15.03312 | 392 ft | 144 kts | 84° |
| 2026-05-09 01:54 | 37.46505 | 15.04561 | 202 ft | 143 kts | 84° |
| 2026-05-09 01:54 | 37.46606 | 15.05800 | 36 ft | 138 kts | 84° |
| 2026-05-09 01:54 | 37.46690 | 15.06779 | 20 ft | 73 kts | 84° |
| 2026-05-09 01:54 | 37.46714 | 15.06931 | 19 ft | 0 kts | 359° |
| 2026-05-09 01:55 | 37.46762 | 15.06923 | 19 ft | 10 kts | 341° |
| 2026-05-09 01:55 | 37.46830 | 15.06886 | 19 ft | 10 kts | 335° |
| 2026-05-09 01:55 | 37.46859 | 15.06812 | 20 ft | 10 kts | 268° |
| 2026-05-09 01:55 | 37.46851 | 15.06724 | 20 ft | 10 kts | 263° |
| 2026-05-09 01:56 | 37.46844 | 15.06636 | 21 ft | 9 kts | 264° |
| 2026-05-09 01:56 | 37.46837 | 15.06554 | 22 ft | 9 kts | 264° |
| 2026-05-09 01:56 | 37.46830 | 15.06472 | 23 ft | 9 kts | 263° |
| 2026-05-09 01:56 | 37.46822 | 15.06390 | 23 ft | 9 kts | 263° |
| 2026-05-09 01:57 | 37.46821 | 15.06354 | 24 ft | 2 kts | 282° |
| 2026-05-09 01:57 | 37.46833 | 15.06343 | 24 ft | 2 kts | 349° |
| 2026-05-09 01:57 | 37.46856 | 15.06337 | 24 ft | 3 kts | 342° |
| 2026-05-09 01:57 | 37.46873 | 15.06320 | 25 ft | 3 kts | 316° |
| 2026-05-09 01:58 | 37.46896 | 15.06293 | 25 ft | 7 kts | 317° |
| 2026-05-09 01:58 | 37.46919 | 15.06266 | 25 ft | 0 kts | 315° |